Time;durP1;ratioP1;P1;durP2;ratioP2;P2;SDS_P1;SDS_P2;PMS_P1;PMS_P2;Temp;Humidity;BMP_temperature;BMP_pressure;BME280_temperature;BME280_humidity;BME280_pressure;Samples;Min_cycle;Max_cycle;Signal;HPM_P1;HPM_P2
2021/12/16 00:08:31;;;;;;;16.10;10.32;;;;;;;;;;5015224;28;20046;-67
2021/12/16 00:11:18;;;;;;;17.48;10.82;;;;;;;;;;5013855;28;20049;-68
2021/12/16 00:30:40;;;;;;;17.88;11.43;;;;;;;;;;5013493;28;20046;-67
2021/12/16 00:33:12;;;;;;;18.52;11.20;;;;;;;;;;5013891;28;20050;-67
2021/12/16 00:35:41;;;;;;;18.92;11.85;;;;;;;;;;5012992;28;20093;-67
2021/12/16 00:38:08;;;;;;;18.15;12.07;;;;;;;;;;5006306;28;20058;-67
2021/12/16 00:40:39;;;;;;;19.17;11.85;;;;;;;;;;4994361;28;20046;-67
2021/12/16 00:43:15;;;;;;;21.15;13.52;;;;;;;;;;4993090;28;20050;-68
2021/12/16 00:45:57;;;;;;;19.40;11.98;;;;;;;;;;4998600;28;20089;-67
2021/12/16 00:48:36;;;;;;;20.30;12.70;;;;;;;;;;5013713;28;20054;-67
2021/12/16 00:56:33;;;;;;;21.05;13.35;;;;;;;;;;5013978;28;20111;-68
2021/12/16 00:59:03;;;;;;;19.00;13.05;;;;;;;;;;5009908;28;20093;-68
2021/12/16 01:01:42;;;;;;;21.40;13.02;;;;;;;;;;4994254;28;20113;-67
2021/12/16 01:10:14;;;;;;;20.27;13.10;;;;;;;;;;5000442;28;20041;-67
2021/12/16 01:50:37;;;;;;;18.92;12.50;;;;;;;;;;4993032;28;20457;-68
2021/12/16 01:53:19;;;;;;;17.75;12.63;;;;;;;;;;4993428;28;20054;-70
2021/12/16 01:55:53;;;;;;;21.60;12.90;;;;;;;;;;4994969;28;20078;-68
2021/12/16 01:58:23;;;;;;;17.65;11.82;;;;;;;;;;5013579;28;20496;-68
2021/12/16 02:03:51;;;;;;;16.75;10.70;;;;;;;;;;4986479;28;20050;-70
2021/12/16 02:08:48;;;;;;;21.17;11.82;;;;;;;;;;4999798;28;20050;-70
2021/12/16 02:27:37;;;;;;;15.52;10.98;;;;;;;;;;4993106;28;20050;-69
2021/12/16 02:33:12;;;;;;;15.55;9.93;;;;;;;;;;4992251;28;20089;-69
2021/12/16 02:35:58;;;;;;;15.07;9.77;;;;;;;;;;5008609;28;20045;-69
2021/12/16 02:38:30;;;;;;;14.60;9.73;;;;;;;;;;5011969;28;20065;-69
2021/12/16 02:40:57;;;;;;;15.57;8.87;;;;;;;;;;5012007;28;20046;-69
2021/12/16 02:43:52;;;;;;;12.00;7.88;;;;;;;;;;5011202;28;20464;-69
2021/12/16 02:48:42;;;;;;;13.98;8.80;;;;;;;;;;5012624;28;20053;-69
2021/12/16 02:51:19;;;;;;;12.40;8.30;;;;;;;;;;5012759;28;20500;-69
2021/12/16 02:53:53;;;;;;;14.30;8.38;;;;;;;;;;5010165;28;20077;-69
2021/12/16 02:56:19;;;;;;;13.30;9.02;;;;;;;;;;5011944;28;20648;-69
2021/12/16 02:58:54;;;;;;;14.80;9.57;;;;;;;;;;5010622;28;20054;-69
2021/12/16 03:01:34;;;;;;;11.85;8.20;;;;;;;;;;5011717;28;20457;-69
2021/12/16 03:04:03;;;;;;;16.08;9.18;;;;;;;;;;5011487;28;20141;-69
2021/12/16 03:06:31;;;;;;;13.10;8.77;;;;;;;;;;5009503;28;20050;-69
2021/12/16 03:09:00;;;;;;;15.40;9.93;;;;;;;;;;5011664;28;20107;-69
2021/12/16 03:11:40;;;;;;;16.35;10.63;;;;;;;;;;5009121;28;20104;-69
2021/12/16 03:21:59;;;;;;;16.38;10.82;;;;;;;;;;5006930;28;20080;-69
2021/12/16 03:27:42;;;;;;;16.90;10.63;;;;;;;;;;4971058;28;20106;-69
2021/12/16 03:37:53;;;;;;;17.73;11.10;;;;;;;;;;4995450;28;20564;-70
2021/12/16 03:40:20;;;;;;;20.05;12.98;;;;;;;;;;4997001;28;20042;-69
2021/12/16 03:42:55;;;;;;;19.70;12.43;;;;;;;;;;5005674;28;20050;-69
2021/12/16 03:48:46;;;;;;;17.88;11.73;;;;;;;;;;4995199;28;20112;-69
2021/12/16 03:51:26;;;;;;;17.30;11.70;;;;;;;;;;5003963;28;20627;-69
2021/12/16 03:53:56;;;;;;;20.25;13.43;;;;;;;;;;5014315;28;20046;-69
2021/12/16 03:56:23;;;;;;;25.63;14.32;;;;;;;;;;5014666;28;20053;-69
2021/12/16 03:58:50;;;;;;;22.15;12.27;;;;;;;;;;5014874;28;20394;-69
2021/12/16 04:01:21;;;;;;;20.52;12.88;;;;;;;;;;5012051;28;20497;-69
2021/12/16 04:03:49;;;;;;;20.63;13.10;;;;;;;;;;5007403;28;20049;-69
2021/12/16 04:06:18;;;;;;;21.70;13.65;;;;;;;;;;5014152;28;20053;-69
2021/12/16 04:08:45;;;;;;;22.70;13.48;;;;;;;;;;4995129;28;20096;-69
2021/12/16 04:11:21;;;;;;;21.63;13.32;;;;;;;;;;4994994;28;20050;-69
2021/12/16 04:13:58;;;;;;;20.85;13.07;;;;;;;;;;4996499;28;20398;-69
2021/12/16 04:16:38;;;;;;;18.23;11.90;;;;;;;;;;4995139;28;20450;-69
2021/12/16 04:19:09;;;;;;;18.67;11.52;;;;;;;;;;4994774;28;20054;-69
2021/12/16 04:21:38;;;;;;;18.58;11.88;;;;;;;;;;5006470;28;20046;-69
2021/12/16 04:24:06;;;;;;;18.92;12.20;;;;;;;;;;5000317;28;20498;-69
2021/12/16 04:26:33;;;;;;;20.65;13.75;;;;;;;;;;4994876;28;20104;-69
2021/12/16 04:29:00;;;;;;;20.20;13.20;;;;;;;;;;4994611;28;20054;-70
2021/12/16 04:31:26;;;;;;;23.27;14.35;;;;;;;;;;5005096;28;20456;-70
2021/12/16 04:33:53;;;;;;;22.42;13.95;;;;;;;;;;4997341;28;20097;-70
2021/12/16 04:36:20;;;;;;;26.02;15.00;;;;;;;;;;5013038;28;20575;-70
2021/12/16 04:38:47;;;;;;;26.83;15.50;;;;;;;;;;5014302;28;20096;-70
2021/12/16 04:41:15;;;;;;;25.20;15.32;;;;;;;;;;5014393;28;20053;-69
2021/12/16 04:43:48;;;;;;;27.38;17.63;;;;;;;;;;5002919;28;20050;-70
2021/12/16 04:46:17;;;;;;;26.88;16.15;;;;;;;;;;5011331;28;20053;-69
2021/12/16 04:48:46;;;;;;;26.40;15.27;;;;;;;;;;5013845;28;20049;-70
2021/12/16 04:51:14;;;;;;;25.67;15.10;;;;;;;;;;5013872;28;20046;-69
2021/12/16 04:53:41;;;;;;;25.55;15.38;;;;;;;;;;5007570;28;20097;-69
2021/12/16 04:56:09;;;;;;;24.88;15.30;;;;;;;;;;5011778;28;20497;-69
2021/12/16 04:58:36;;;;;;;24.30;14.13;;;;;;;;;;5013886;28;20464;-70
2021/12/16 05:01:03;;;;;;;25.38;13.82;;;;;;;;;;5009411;28;20088;-70
2021/12/16 05:03:31;;;;;;;24.52;15.13;;;;;;;;;;5004578;28;20104;-70
2021/12/16 05:05:57;;;;;;;24.50;14.18;;;;;;;;;;4994324;28;20468;-70
2021/12/16 05:08:24;;;;;;;24.63;14.95;;;;;;;;;;5001449;28;20050;-70
2021/12/16 05:10:53;;;;;;;24.08;14.32;;;;;;;;;;5002278;28;20046;-70
2021/12/16 05:13:23;;;;;;;23.65;14.32;;;;;;;;;;4993509;28;20050;-70
2021/12/16 05:15:51;;;;;;;23.50;14.80;;;;;;;;;;4993718;28;20120;-69
2021/12/16 05:18:23;;;;;;;24.85;15.15;;;;;;;;;;4993651;28;20120;-70
2021/12/16 05:20:50;;;;;;;22.00;14.02;;;;;;;;;;4993558;28;20567;-70
2021/12/16 05:26:16;;;;;;;25.20;14.85;;;;;;;;;;5000672;28;20045;-70
2021/12/16 05:28:49;;;;;;;24.92;14.60;;;;;;;;;;5013436;28;20100;-70
2021/12/16 05:31:17;;;;;;;24.27;14.30;;;;;;;;;;5012550;28;20321;-70
2021/12/16 05:33:44;;;;;;;26.25;15.15;;;;;;;;;;5012984;28;20116;-70
2021/12/16 05:36:10;;;;;;;25.42;14.07;;;;;;;;;;5008408;28;20050;-70
2021/12/16 05:38:37;;;;;;;21.55;13.15;;;;;;;;;;4995982;28;21784;-70
2021/12/16 05:41:05;;;;;;;23.80;13.35;;;;;;;;;;5012707;28;20050;-70
2021/12/16 05:43:32;;;;;;;23.80;14.43;;;;;;;;;;5004230;28;20460;-70
2021/12/16 05:45:59;;;;;;;24.13;14.02;;;;;;;;;;4993276;28;20472;-70
2021/12/16 05:48:28;;;;;;;23.17;14.13;;;;;;;;;;4993257;28;20551;-70
2021/12/16 05:51:02;;;;;;;25.67;14.80;;;;;;;;;;4999031;28;20045;-70
2021/12/16 05:53:29;;;;;;;25.15;13.82;;;;;;;;;;5004984;28;20058;-70
2021/12/16 05:55:56;;;;;;;22.98;13.63;;;;;;;;;;4992852;28;20050;-70
2021/12/16 05:58:24;;;;;;;18.67;11.90;;;;;;;;;;5003575;28;20100;-70
2021/12/16 06:00:56;;;;;;;22.02;13.38;;;;;;;;;;5010744;28;20049;-70
2021/12/16 06:03:23;;;;;;;32.17;15.90;;;;;;;;;;5005819;28;20133;-70
2021/12/16 06:05:50;;;;;;;33.70;16.17;;;;;;;;;;4992717;28;20065;-70
2021/12/16 06:08:17;;;;;;;25.48;14.25;;;;;;;;;;4994110;28;20051;-70
2021/12/16 06:13:17;;;;;;;22.13;12.35;;;;;;;;;;4995894;28;20054;-70
2021/12/16 06:15:59;;;;;;;19.70;11.82;;;;;;;;;;4992679;28;20465;-70
2021/12/16 06:26:59;;;;;;;20.55;12.10;;;;;;;;;;4973299;28;20502;-70
2021/12/16 06:29:26;;;;;;;19.65;12.93;;;;;;;;;;4973337;28;20056;-70
2021/12/16 06:31:53;;;;;;;20.23;12.77;;;;;;;;;;4977693;28;20452;-70
2021/12/16 06:34:21;;;;;;;23.55;12.90;;;;;;;;;;5002157;28;20058;-70
2021/12/16 06:36:47;;;;;;;25.02;13.13;;;;;;;;;;5012150;28;20104;-70
2021/12/16 06:39:14;;;;;;;24.67;13.27;;;;;;;;;;5012093;28;20053;-70
2021/12/16 06:41:41;;;;;;;25.05;14.63;;;;;;;;;;5012030;28;20213;-70
2021/12/16 06:44:14;;;;;;;21.67;13.93;;;;;;;;;;5004799;28;20050;-70
2021/12/16 06:46:43;;;;;;;;;;;;;;;;;;4999302;28;20563;-70
2021/12/16 06:49:12;;;;;;;23.02;12.93;;;;;;;;;;5011683;28;19921;-70
2021/12/16 06:51:48;;;;;;;20.95;12.35;;;;;;;;;;5011962;28;20050;-70
2021/12/16 06:54:32;;;;;;;22.45;12.95;;;;;;;;;;4994354;28;20051;-70
2021/12/16 07:00:03;;;;;;;21.23;13.47;;;;;;;;;;4976797;28;20105;-70
2021/12/16 07:05:24;;;;;;;23.20;13.32;;;;;;;;;;4997801;28;20413;-69
2021/12/16 07:07:51;;;;;;;24.10;13.52;;;;;;;;;;5003962;28;20046;-68
2021/12/16 07:10:19;;;;;;;22.02;12.75;;;;;;;;;;5015591;28;20054;-67
2021/12/16 07:12:48;;;;;;;20.48;11.93;;;;;;;;;;5015717;28;20452;-68
2021/12/16 07:15:22;;;;;;;20.85;11.57;;;;;;;;;;5013525;28;20607;-67
2021/12/16 07:17:49;;;;;;;21.25;12.43;;;;;;;;;;5013911;28;20050;-68
2021/12/16 07:20:19;;;;;;;24.52;14.23;;;;;;;;;;5013324;28;20054;-68
2021/12/16 07:22:46;;;;;;;22.77;13.80;;;;;;;;;;5008891;28;20564;-68
2021/12/16 07:25:13;;;;;;;22.88;12.85;;;;;;;;;;4993640;28;20065;-69
2021/12/16 07:27:39;;;;;;;23.63;13.95;;;;;;;;;;4993636;28;20112;-68
2021/12/16 07:30:09;;;;;;;20.85;12.65;;;;;;;;;;4993681;28;20564;-68
2021/12/16 07:32:35;;;;;;;22.65;13.38;;;;;;;;;;4993552;28;20046;-68
2021/12/16 07:35:08;;;;;;;23.73;13.98;;;;;;;;;;4992405;28;20064;-68
2021/12/16 07:37:35;;;;;;;21.53;13.20;;;;;;;;;;4993537;28;20054;-68
2021/12/16 07:40:07;;;;;;;18.75;12.13;;;;;;;;;;4993446;28;20705;-68
2021/12/16 07:42:45;;;;;;;24.60;13.95;;;;;;;;;;4993047;28;20096;-68
2021/12/16 07:45:13;;;;;;;20.13;12.23;;;;;;;;;;4998037;28;20479;-68
2021/12/16 07:47:40;;;;;;;21.27;12.77;;;;;;;;;;4993339;28;20105;-68
2021/12/16 07:50:08;;;;;;;21.75;12.18;;;;;;;;;;4993353;28;20058;-68
2021/12/16 07:52:36;;;;;;;20.00;12.50;;;;;;;;;;4993402;28;20085;-68
2021/12/16 07:55:03;;;;;;;21.40;12.48;;;;;;;;;;4993119;28;20343;-68
2021/12/16 07:57:30;;;;;;;21.52;12.88;;;;;;;;;;4992956;28;20113;-68
2021/12/16 07:59:57;;;;;;;20.30;13.10;;;;;;;;;;4993152;28;20520;-68
2021/12/16 08:02:23;;;;;;;22.85;13.40;;;;;;;;;;4992957;28;20043;-68
2021/12/16 08:04:52;;;;;;;21.67;12.95;;;;;;;;;;4992738;28;20046;-65
2021/12/16 08:07:21;;;;;;;21.83;12.52;;;;;;;;;;4992396;28;20136;-65
2021/12/16 08:09:49;;;;;;;20.70;12.48;;;;;;;;;;4984132;28;20046;-68
2021/12/16 08:12:17;;;;;;;23.50;12.98;;;;;;;;;;4983108;28;20043;-67
2021/12/16 08:14:44;;;;;;;18.75;11.75;;;;;;;;;;4981448;28;20074;-65
2021/12/16 08:17:11;;;;;;;20.77;12.15;;;;;;;;;;4977977;28;20066;-67
2021/12/16 08:19:38;;;;;;;19.38;11.65;;;;;;;;;;4981881;28;20451;-67
2021/12/16 08:22:05;;;;;;;19.92;12.50;;;;;;;;;;4979381;28;20297;-67
2021/12/16 08:24:32;;;;;;;21.80;12.18;;;;;;;;;;4979628;28;20053;-67
2021/12/16 08:26:59;;;;;;;20.90;12.20;;;;;;;;;;4982017;28;20058;-66
2021/12/16 08:29:25;;;;;;;19.25;11.55;;;;;;;;;;4983797;28;20117;-66
2021/12/16 08:31:52;;;;;;;21.83;11.68;;;;;;;;;;4981931;28;20101;-66
2021/12/16 08:34:19;;;;;;;18.08;10.85;;;;;;;;;;4977930;28;20453;-66
2021/12/16 08:36:46;;;;;;;18.23;11.65;;;;;;;;;;4983993;28;20557;-66
2021/12/16 08:39:15;;;;;;;19.38;12.30;;;;;;;;;;4979023;28;20065;-66
2021/12/16 08:41:51;;;;;;;19.30;11.00;;;;;;;;;;4980853;28;20046;-66
2021/12/16 08:44:19;;;;;;;24.98;13.13;;;;;;;;;;4977606;28;20058;-66
2021/12/16 08:46:50;;;;;;;19.10;11.63;;;;;;;;;;4980995;28;20042;-66
2021/12/16 08:49:16;;;;;;;18.50;11.60;;;;;;;;;;4978338;28;20050;-64
2021/12/16 08:51:50;;;;;;;16.00;9.27;;;;;;;;;;4990146;28;20042;-65
2021/12/16 08:54:19;;;;;;;17.27;10.80;;;;;;;;;;4981732;28;20059;-66
2021/12/16 08:56:46;;;;;;;18.27;11.13;;;;;;;;;;4983464;28;20101;-67
2021/12/16 08:59:13;;;;;;;18.15;11.13;;;;;;;;;;4987696;28;20050;-69
2021/12/16 09:01:49;;;;;;;17.42;10.25;;;;;;;;;;4994409;28;20034;-71
2021/12/16 09:04:16;;;;;;;17.33;10.82;;;;;;;;;;5001472;28;20039;-70
2021/12/16 09:06:43;;;;;;;17.45;10.93;;;;;;;;;;4990703;28;20101;-68
2021/12/16 09:09:10;;;;;;;19.23;11.30;;;;;;;;;;4999311;28;20497;-69
2021/12/16 09:11:43;;;;;;;17.38;10.60;;;;;;;;;;4993064;28;20105;-69
2021/12/16 09:14:10;;;;;;;16.63;10.30;;;;;;;;;;4986444;28;20086;-70
2021/12/16 09:16:37;;;;;;;17.13;11.25;;;;;;;;;;4989746;28;20051;-72
2021/12/16 09:19:06;;;;;;;13.82;9.40;;;;;;;;;;4984327;28;20054;-72
2021/12/16 09:21:34;;;;;;;16.35;8.82;;;;;;;;;;4984486;28;20050;-70
2021/12/16 09:24:02;;;;;;;17.02;10.68;;;;;;;;;;4986988;28;21668;-72
2021/12/16 09:26:29;;;;;;;16.48;9.98;;;;;;;;;;4984558;28;20058;-68
2021/12/16 09:28:56;;;;;;;16.23;9.73;;;;;;;;;;4978297;28;20129;-68
2021/12/16 09:31:25;;;;;;;15.85;9.95;;;;;;;;;;4979423;28;20101;-70
2021/12/16 09:33:53;;;;;;;17.60;10.73;;;;;;;;;;4977612;28;20565;-70
2021/12/16 09:36:24;;;;;;;19.13;10.60;;;;;;;;;;4979814;28;20059;-72
2021/12/16 09:38:51;;;;;;;17.35;11.15;;;;;;;;;;4983002;28;20042;-68
2021/12/16 09:41:18;;;;;;;20.67;11.55;;;;;;;;;;4978966;28;20127;-70
2021/12/16 09:43:48;;;;;;;20.15;11.35;;;;;;;;;;4980135;28;20093;-69
2021/12/16 09:46:19;;;;;;;19.70;10.90;;;;;;;;;;4983065;28;20520;-66
2021/12/16 09:48:46;;;;;;;18.88;11.32;;;;;;;;;;4979422;28;20612;-67
2021/12/16 09:51:17;;;;;;;18.38;11.70;;;;;;;;;;4980273;28;20548;-66
2021/12/16 09:53:50;;;;;;;17.92;10.98;;;;;;;;;;4978508;28;20059;-66
2021/12/16 09:56:18;;;;;;;16.40;10.25;;;;;;;;;;4969921;28;20050;-67
2021/12/16 09:58:46;;;;;;;20.00;11.98;;;;;;;;;;4979905;28;20047;-66
2021/12/16 10:01:14;;;;;;;16.45;10.82;;;;;;;;;;4979314;28;20545;-67
2021/12/16 10:03:43;;;;;;;15.82;10.35;;;;;;;;;;4975935;28;20469;-67
2021/12/16 10:06:10;;;;;;;17.15;10.48;;;;;;;;;;4983748;28;20063;-67
2021/12/16 10:08:37;;;;;;;17.58;10.48;;;;;;;;;;4980027;28;20046;-67
2021/12/16 10:11:04;;;;;;;17.45;10.70;;;;;;;;;;4978581;28;20510;-67
2021/12/16 10:13:41;;;;;;;17.00;10.18;;;;;;;;;;4976698;28;20051;-67
2021/12/16 10:18:36;;;;;;;15.63;10.27;;;;;;;;;;4980257;28;20042;-66
2021/12/16 10:21:05;;;;;;;16.05;9.63;;;;;;;;;;4977528;28;20049;-67
2021/12/16 10:23:39;;;;;;;16.75;9.88;;;;;;;;;;4981193;28;20053;-67
2021/12/16 10:26:23;;;;;;;17.95;10.82;;;;;;;;;;4982561;28;20093;-67
2021/12/16 10:28:52;;;;;;;15.45;9.25;;;;;;;;;;4978946;28;20538;-67
2021/12/16 10:31:21;;;;;;;17.23;10.45;;;;;;;;;;4978583;28;20058;-67
2021/12/16 10:33:55;;;;;;;13.75;9.23;;;;;;;;;;4984023;28;20098;-67
2021/12/16 10:36:30;;;;;;;16.30;10.55;;;;;;;;;;4979857;28;20096;-67
2021/12/16 10:39:13;;;;;;;16.25;8.98;;;;;;;;;;4981092;28;20042;-67
2021/12/16 10:41:58;;;;;;;18.08;9.90;;;;;;;;;;4982144;28;20108;-67
2021/12/16 10:44:27;;;;;;;16.38;9.55;;;;;;;;;;4981146;28;20050;-67
2021/12/16 10:47:01;;;;;;;16.58;10.00;;;;;;;;;;4977553;28;20101;-67
2021/12/16 10:49:38;;;;;;;14.38;8.98;;;;;;;;;;4979898;28;20054;-66
2021/12/16 10:52:08;;;;;;;15.52;9.50;;;;;;;;;;4979240;28;20051;-67
2021/12/16 10:54:41;;;;;;;15.57;8.45;;;;;;;;;;4981622;28;20070;-67
2021/12/16 10:57:13;;;;;;;;;;;;;;;;;;4980150;28;20061;-67
2021/12/16 10:59:46;;;;;;;15.27;8.85;;;;;;;;;;4978204;28;19993;-67
2021/12/16 11:02:32;;;;;;;17.85;9.93;;;;;;;;;;4980801;28;20124;-66
2021/12/16 11:05:00;;;;;;;15.65;8.80;;;;;;;;;;4982091;28;20050;-67
2021/12/16 11:07:31;;;;;;;15.77;9.73;;;;;;;;;;4978089;28;20368;-67
2021/12/16 11:10:22;;;;;;;16.50;9.82;;;;;;;;;;4978766;28;20101;-67
2021/12/16 11:12:53;;;;;;;14.95;8.85;;;;;;;;;;4980844;28;20044;-67
2021/12/16 11:15:22;;;;;;;14.48;8.52;;;;;;;;;;4980187;28;20097;-68
2021/12/16 11:17:53;;;;;;;12.57;8.27;;;;;;;;;;4977800;28;20062;-69
2021/12/16 11:20:19;;;;;;;13.52;8.88;;;;;;;;;;4984120;28;20122;-69
2021/12/16 11:22:48;;;;;;;13.55;8.77;;;;;;;;;;4978268;28;20134;-69
2021/12/16 11:25:22;;;;;;;13.43;9.27;;;;;;;;;;4979377;28;20124;-69
2021/12/16 11:27:54;;;;;;;15.88;9.05;;;;;;;;;;4980646;28;20113;-67
2021/12/16 11:30:28;;;;;;;15.85;9.07;;;;;;;;;;4982449;28;20058;-67
2021/12/16 11:33:04;;;;;;;13.77;9.05;;;;;;;;;;4981584;28;20046;-67
2021/12/16 11:35:36;;;;;;;13.18;8.45;;;;;;;;;;4973643;28;20092;-69
2021/12/16 11:38:09;;;;;;;14.88;9.75;;;;;;;;;;4980389;28;20054;-71
2021/12/16 11:41:28;;;;;;;15.77;9.57;;;;;;;;;;4979385;28;20047;-72
2021/12/16 11:44:00;;;;;;;15.73;9.02;;;;;;;;;;4979304;28;20462;-72
2021/12/16 11:46:30;;;;;;;13.85;8.88;;;;;;;;;;4981550;28;20046;-70
2021/12/16 11:49:21;;;;;;;17.75;9.38;;;;;;;;;;4978399;28;20053;-72
2021/12/16 11:51:52;;;;;;;15.65;9.13;;;;;;;;;;4979029;28;20051;-70
2021/12/16 11:54:31;;;;;;;14.20;9.18;;;;;;;;;;4982017;28;20089;-71
2021/12/16 11:57:11;;;;;;;16.48;8.63;;;;;;;;;;4982703;28;20072;-73
2021/12/16 11:59:55;;;;;;;14.70;9.98;;;;;;;;;;4980648;28;20344;-67
2021/12/16 12:02:33;;;;;;;16.15;8.95;;;;;;;;;;4980166;28;20210;-67
2021/12/16 12:05:27;;;;;;;15.98;10.02;;;;;;;;;;4983160;28;20073;-73
2021/12/16 12:08:09;;;;;;;17.45;9.35;;;;;;;;;;4983508;28;20046;-75
2021/12/16 12:10:45;;;;;;;15.88;9.20;;;;;;;;;;4985210;28;20047;-75
2021/12/16 12:13:21;;;;;;;14.27;9.23;;;;;;;;;;4979136;28;20050;-73
2021/12/16 12:16:06;;;;;;;14.00;8.82;;;;;;;;;;4980403;28;20043;-73
2021/12/16 12:18:55;;;;;;;15.57;9.20;;;;;;;;;;4983950;28;20069;-71
2021/12/16 12:21:34;;;;;;;15.05;9.57;;;;;;;;;;4981670;28;20124;-68
2021/12/16 12:24:08;;;;;;;17.30;10.02;;;;;;;;;;4980996;28;20118;-70
2021/12/16 12:26:49;;;;;;;13.75;9.02;;;;;;;;;;4980257;28;20047;-70
2021/12/16 12:29:19;;;;;;;17.60;9.60;;;;;;;;;;4997569;28;20085;-69
2021/12/16 12:31:50;;;;;;;16.95;10.02;;;;;;;;;;4986856;28;20046;-69
2021/12/16 12:34:17;;;;;;;14.50;9.35;;;;;;;;;;4978125;28;20102;-70
2021/12/16 12:36:45;;;;;;;17.60;9.98;;;;;;;;;;4981778;28;20105;-69
2021/12/16 12:39:15;;;;;;;16.13;10.05;;;;;;;;;;4980354;28;20065;-69
2021/12/16 12:41:43;;;;;;;16.20;10.80;;;;;;;;;;4986749;28;20087;-69
2021/12/16 12:44:10;;;;;;;26.13;9.73;;;;;;;;;;4979256;28;20565;-68
2021/12/16 12:46:39;;;;;;;17.48;10.10;;;;;;;;;;4981100;28;20046;-69
2021/12/16 12:49:11;;;;;;;17.55;9.73;;;;;;;;;;4973227;28;20506;-70
2021/12/16 12:51:44;;;;;;;14.52;10.02;;;;;;;;;;4982579;28;20569;-67
2021/12/16 12:54:30;;;;;;;18.33;10.32;;;;;;;;;;4978640;28;20097;-67
2021/12/16 12:56:59;;;;;;;14.07;9.23;;;;;;;;;;4978740;28;20528;-67
2021/12/16 12:59:53;;;;;;;14.43;9.70;;;;;;;;;;4982390;28;20058;-65
2021/12/16 13:02:40;;;;;;;18.60;10.10;;;;;;;;;;4983668;28;20054;-67
2021/12/16 13:05:11;;;;;;;14.73;10.18;;;;;;;;;;4979198;28;20055;-69
2021/12/16 13:07:41;;;;;;;15.63;10.10;;;;;;;;;;4981253;28;20054;-67
2021/12/16 13:10:21;;;;;;;14.57;10.60;;;;;;;;;;4980510;28;20497;-67
2021/12/16 13:13:00;;;;;;;15.85;10.20;;;;;;;;;;4982316;28;20043;-67
2021/12/16 13:15:38;;;;;;;15.63;9.68;;;;;;;;;;4978830;28;20057;-69
2021/12/16 13:23:45;;;;;;;15.52;9.50;;;;;;;;;;4987735;28;20046;-66
2021/12/16 13:28:58;;;;;;;18.45;11.18;;;;;;;;;;4977573;28;20063;-66
2021/12/16 13:31:39;;;;;;;18.67;11.70;;;;;;;;;;4981492;28;20460;-66
2021/12/16 13:34:25;;;;;;;15.00;10.13;;;;;;;;;;4981291;28;20478;-67
2021/12/16 13:36:56;;;;;;;16.63;10.90;;;;;;;;;;4983796;28;20093;-67
2021/12/16 13:39:27;;;;;;;16.35;10.18;;;;;;;;;;4984723;28;20046;-66
2021/12/16 13:42:07;;;;;;;14.32;9.38;;;;;;;;;;4982515;28;20093;-66
2021/12/16 13:45:04;;;;;;;15.93;10.30;;;;;;;;;;4981313;28;20100;-67
2021/12/16 14:02:00;;;;;;;15.48;9.70;;;;;;;;;;4980058;28;20047;-68
2021/12/16 14:05:40;;;;;;;17.88;11.05;;;;;;;;;;4978277;28;20050;-67
2021/12/16 14:07:55;;;;;;;15.38;9.57;;;;;;;;;;4978752;28;20050;-68
2021/12/16 14:10:42;;;;;;;17.05;9.95;;;;;;;;;;4980190;28;20120;-68
2021/12/16 14:25:10;;;;;;;16.77;9.82;;;;;;;;;;4979618;28;20043;-69
2021/12/16 14:49:49;;;;;;;17.20;10.32;;;;;;;;;;4977891;28;20050;-66
2021/12/16 14:52:19;;;;;;;18.63;10.93;;;;;;;;;;4979513;28;20081;-69
2021/12/16 14:55:16;;;;;;;17.27;10.65;;;;;;;;;;4980112;28;20580;-68
2021/12/16 14:57:46;;;;;;;18.10;10.23;;;;;;;;;;4966715;28;20050;-67
2021/12/16 15:00:29;;;;;;;20.52;9.98;;;;;;;;;;4971746;28;20462;-68
2021/12/16 15:03:08;;;;;;;21.00;10.38;;;;;;;;;;4982656;28;20137;-70
2021/12/16 15:05:40;;;;;;;15.55;9.43;;;;;;;;;;4982866;28;20054;-71
2021/12/16 15:08:11;;;;;;;17.10;10.00;;;;;;;;;;4980017;28;20050;-72
2021/12/16 15:10:38;;;;;;;16.80;10.63;;;;;;;;;;4978042;28;20046;-71
2021/12/16 15:13:23;;;;;;;16.02;9.77;;;;;;;;;;4978953;28;20042;-72
2021/12/16 15:43:17;;;;;;;16.08;10.35;;;;;;;;;;4982305;28;20482;-72
2021/12/16 15:45:46;;;;;;;16.27;10.23;;;;;;;;;;4990944;28;20092;-71
2021/12/16 15:48:22;;;;;;;19.00;11.20;;;;;;;;;;4981963;28;20129;-69
2021/12/16 15:51:00;;;;;;;18.20;10.52;;;;;;;;;;4985501;28;20129;-73
2021/12/16 15:53:32;;;;;;;20.02;10.60;;;;;;;;;;4985025;28;20527;-70
2021/12/16 15:56:08;;;;;;;16.23;10.35;;;;;;;;;;4985652;28;20588;-71
2021/12/16 15:58:41;;;;;;;18.75;11.55;;;;;;;;;;4977134;28;20047;-68
2021/12/16 16:01:21;;;;;;;16.25;10.57;;;;;;;;;;4982764;28;20509;-71
2021/12/16 16:03:48;;;;;;;19.10;11.80;;;;;;;;;;4965310;28;20465;-69
2021/12/16 16:06:16;;;;;;;18.88;10.77;;;;;;;;;;4987065;28;20500;-69
2021/12/16 16:08:49;;;;;;;20.20;10.32;;;;;;;;;;4983620;28;20097;-70
2021/12/16 16:11:26;;;;;;;19.38;10.52;;;;;;;;;;4981236;28;20263;-71
2021/12/16 16:13:58;;;;;;;16.17;10.25;;;;;;;;;;4980588;28;20043;-70
2021/12/16 16:16:30;;;;;;;17.77;11.63;;;;;;;;;;4985751;28;20058;-69
2021/12/16 16:19:00;;;;;;;19.38;11.30;;;;;;;;;;4980845;28;20101;-69
2021/12/16 16:21:30;;;;;;;17.00;10.73;;;;;;;;;;4981870;28;20058;-72
2021/12/16 16:24:04;;;;;;;19.73;11.82;;;;;;;;;;4982678;28;20105;-72
2021/12/16 16:26:34;;;;;;;22.20;13.98;;;;;;;;;;4983197;28;20058;-73
2021/12/16 16:29:06;;;;;;;25.80;14.05;;;;;;;;;;4979621;28;20050;-70
2021/12/16 16:31:33;;;;;;;27.52;16.13;;;;;;;;;;4981057;28;20486;-70
2021/12/16 16:34:00;;;;;;;25.55;14.85;;;;;;;;;;4984496;28;20106;-69
2021/12/16 16:36:29;;;;;;;22.92;13.77;;;;;;;;;;4982221;28;20054;-68
2021/12/16 16:39:04;;;;;;;22.98;12.95;;;;;;;;;;4979086;28;20047;-69
2021/12/16 16:41:32;;;;;;;17.25;10.98;;;;;;;;;;4984964;28;20100;-71
2021/12/16 16:44:10;;;;;;;20.17;12.60;;;;;;;;;;4991841;28;20086;-74
2021/12/16 16:46:50;;;;;;;21.30;12.10;;;;;;;;;;4981419;28;20590;-71
2021/12/16 16:49:47;;;;;;;19.23;11.82;;;;;;;;;;4984492;28;20046;-67
2021/12/16 16:52:23;;;;;;;16.63;10.07;;;;;;;;;;4982402;28;20080;-68
2021/12/16 16:55:01;;;;;;;17.38;10.40;;;;;;;;;;4979503;28;20097;-67
2021/12/16 16:57:30;;;;;;;23.73;10.77;;;;;;;;;;4977168;28;20058;-67
2021/12/16 16:59:59;;;;;;;20.85;12.30;;;;;;;;;;4977046;28;20101;-66
2021/12/16 17:02:30;;;;;;;22.55;10.45;;;;;;;;;;4978164;28;20065;-67
2021/12/16 17:05:26;;;;;;;18.38;10.85;;;;;;;;;;4977417;28;20062;-67
2021/12/16 17:08:01;;;;;;;17.27;10.20;;;;;;;;;;4977146;28;20042;-67
2021/12/16 17:10:59;;;;;;;22.08;12.00;;;;;;;;;;4978875;28;20046;-66
2021/12/16 17:13:42;;;;;;;19.40;11.52;;;;;;;;;;4978921;28;20460;-67
2021/12/16 17:18:47;;;;;;;20.38;11.57;;;;;;;;;;4976488;28;20142;-68
2021/12/16 17:21:22;;;;;;;22.52;11.80;;;;;;;;;;4978429;28;20054;-67
2021/12/16 17:23:53;;;;;;;15.57;10.90;;;;;;;;;;4978784;28;20105;-67
2021/12/16 17:26:44;;;;;;;18.02;11.52;;;;;;;;;;4976712;28;20150;-67
2021/12/16 17:29:14;;;;;;;21.55;12.70;;;;;;;;;;4980407;28;20082;-68
2021/12/16 17:31:44;;;;;;;20.48;12.50;;;;;;;;;;4980812;28;20050;-67
2021/12/16 17:34:10;;;;;;;26.33;12.77;;;;;;;;;;4979645;28;20105;-67
2021/12/16 17:36:43;;;;;;;22.20;12.63;;;;;;;;;;4981126;28;20054;-67
2021/12/16 17:39:13;;;;;;;25.17;13.85;;;;;;;;;;4978828;28;20106;-67
2021/12/16 17:41:40;;;;;;;26.70;15.70;;;;;;;;;;4980112;28;20561;-67
2021/12/16 17:44:12;;;;;;;26.27;14.95;;;;;;;;;;4975609;28;20120;-67
2021/12/16 17:46:42;;;;;;;24.73;14.68;;;;;;;;;;4976608;28;20058;-68
2021/12/16 17:49:09;;;;;;;23.90;13.60;;;;;;;;;;4977387;28;20054;-67
2021/12/16 17:51:40;;;;;;;26.60;14.95;;;;;;;;;;4976831;28;20050;-67
2021/12/16 17:54:08;;;;;;;25.60;13.18;;;;;;;;;;4975967;28;20394;-66
2021/12/16 17:56:34;;;;;;;21.67;13.07;;;;;;;;;;4977027;28;20055;-66
2021/12/16 17:59:04;;;;;;;22.30;13.52;;;;;;;;;;4979630;28;20103;-67
2021/12/16 18:01:34;;;;;;;23.83;12.30;;;;;;;;;;4978103;28;20046;-67
2021/12/16 18:04:08;;;;;;;21.77;12.82;;;;;;;;;;4978319;28;20047;-67
2021/12/16 18:06:54;;;;;;;22.10;13.40;;;;;;;;;;4983015;28;20537;-67
2021/12/16 18:09:30;;;;;;;23.73;13.20;;;;;;;;;;4978078;28;20051;-67
2021/12/16 18:12:03;;;;;;;22.50;13.05;;;;;;;;;;4979112;28;20116;-67
2021/12/16 18:14:43;;;;;;;19.15;11.98;;;;;;;;;;4980708;28;20125;-67
2021/12/16 18:17:16;;;;;;;21.67;12.80;;;;;;;;;;4980545;28;20112;-67
2021/12/16 18:19:47;;;;;;;24.55;13.43;;;;;;;;;;4976557;28;20196;-67
2021/12/16 18:22:18;;;;;;;19.75;12.75;;;;;;;;;;4979284;28;20109;-67
2021/12/16 18:24:50;;;;;;;19.98;11.15;;;;;;;;;;4977644;28;20042;-67
2021/12/16 18:27:32;;;;;;;22.67;12.20;;;;;;;;;;4975481;28;20054;-68
2021/12/16 18:30:12;;;;;;;21.45;11.82;;;;;;;;;;4978978;28;20449;-67
2021/12/16 18:32:45;;;;;;;23.92;12.80;;;;;;;;;;4976473;28;20121;-66
2021/12/16 18:35:16;;;;;;;22.92;13.20;;;;;;;;;;4978909;28;20062;-66
2021/12/16 18:37:46;;;;;;;20.15;11.38;;;;;;;;;;4979606;28;20109;-68
2021/12/16 18:40:14;;;;;;;22.00;10.52;;;;;;;;;;4977483;28;20323;-68
2021/12/16 18:42:41;;;;;;;18.00;11.57;;;;;;;;;;4977401;28;20097;-68